Glen Elder, KS (67446)

7:57 AM CST on February 10, 2016 (GMT -0600)
Glen Elder | | Change Station
CLOSE
Current Station
Personal Weather Station
Location: Glen Elder, KS
Elevation: 1453 ft
Nearby Weather Stations

Elev 1453 ft 39.50 °N, 98.31 °W | Updated 1 second ago

Clear
Clear
25.8 °F
Feels Like 26 °F
N
0.0
Wind Variable Wind from SE
Gusts 0.0 mph

Today
High -- | Low -- °F
--% Chance of Precip.
Yesterday
High -- | Low -- °F
Precip. -- in
Pressure 30.06 in
Visibility 10.0 miles
Clouds Clear
Windchill 26 °F
Dew Point 24 °F
Humidity 91%
Rainfall 0.00 in
Snow Depth Not available.
7:31 AM 6:03 PM
Waxing Crescent, 5% visible
METAR KCNK 101255Z AUTO 21014G23KT 10SM CLR M04/M08 A3001 RMK AO2 SLP180 T10391078
Pressure 30.06 in
Visibility 10.0 miles
Clouds Clear
Windchill 26 °F
Dew Point 24 °F
Humidity 91%
Rainfall 0.00 in
Snow Depth Not available.
7:31 AM 6:03 PM
Waxing Crescent, 5% visible
METAR KCNK 101255Z AUTO 21014G23KT 10SM CLR M04/M08 A3001 RMK AO2 SLP180 T10391078

10-Day Weather Forecast

Almanac

Astronomy

Feb. 10, 2016 Rise Set
Actual Time
Civil Twilight
Nautical Twilight
Astronomical Twilight
Moon
Length of Visible Light
Length of Day
Tomorrow will be .
, % of the Moon is Illuminated

Today's Extremes

State Highs State Lows

Community

WunderPhotos

Upload Photos

1,891,845 photos uploaded!

WunderBlog® & News

Nearby

Air Quality

  Air Quality AQ Index Pollutant
Not available.

Snow Depth

Station Depth Elevation

Earthquake Activity

City Distance Mag. Time & Date
Minimum magnitude displayed is 2.5.

Coastal Water Temperatures

Place Temperature

Stations

Nearby Weather Stations

Station Location Temp. Windchill Dew Point Humidity Wind Precip. Elev Updated Type
                   

Watches & Warnings

There are currently no watches in effect.